sensor_id;sensor_type;location;lat;lon;timestamp;pressure;altitude;pressure_sealevel;temperature;humidity
62655;BME280;48717;55.556;37.816;2023-02-18T00:00:30;99552.81;;;-11.64;94.25
62655;BME280;48717;55.556;37.816;2023-02-18T00:02:57;99498.28;;;-11.99;94.10
62655;BME280;48717;55.556;37.816;2023-02-18T00:05:24;99538.97;;;-11.68;93.73
62655;BME280;48717;55.556;37.816;2023-02-18T00:07:51;99523.44;;;-11.92;94.33
62655;BME280;48717;55.556;37.816;2023-02-18T00:10:19;99549.38;;;-11.75;93.79
62655;BME280;48717;55.556;37.816;2023-02-18T00:12:46;99516.31;;;-11.96;93.91
62655;BME280;48717;55.556;37.816;2023-02-18T00:15:13;99516.06;;;-11.89;94.05
62655;BME280;48717;55.556;37.816;2023-02-18T00:17:40;99523.44;;;-11.92;94.39
62655;BME280;48717;55.556;37.816;2023-02-18T00:20:07;99544.69;;;-11.81;93.70
62655;BME280;48717;55.556;37.816;2023-02-18T00:22:35;99489.91;;;-12.19;93.85
62655;BME280;48717;55.556;37.816;2023-02-18T00:25:02;99490.16;;;-12.16;93.88
62655;BME280;48717;55.556;37.816;2023-02-18T00:27:29;99501.47;;;-12.12;93.49
62655;BME280;48717;55.556;37.816;2023-02-18T00:29:57;99549.63;;;-11.93;93.52
62655;BME280;48717;55.556;37.816;2023-02-18T00:32:25;99504.66;;;-12.25;93.91
62655;BME280;48717;55.556;37.816;2023-02-18T00:34:52;99512.78;;;-12.19;93.41
62655;BME280;48717;55.556;37.816;2023-02-18T00:37:19;99540.47;;;-12.01;93.72
62655;BME280;48717;55.556;37.816;2023-02-18T00:39:46;99536.44;;;-11.99;93.75
62655;BME280;48717;55.556;37.816;2023-02-18T00:42:13;99524.22;;;-12.03;94.68
62655;BME280;48717;55.556;37.816;2023-02-18T00:44:40;99499.84;;;-12.12;94.06
62655;BME280;48717;55.556;37.816;2023-02-18T00:47:07;99486.22;;;-12.12;94.48
62655;BME280;48717;55.556;37.816;2023-02-18T00:49:34;99506.66;;;-12.00;93.59
62655;BME280;48717;55.556;37.816;2023-02-18T00:52:03;99471.34;;;-12.18;93.68
62655;BME280;48717;55.556;37.816;2023-02-18T00:54:32;99492.19;;;-12.12;94.10
62655;BME280;48717;55.556;37.816;2023-02-18T00:56:59;99492.56;;;-12.07;94.66
62655;BME280;48717;55.556;37.816;2023-02-18T00:59:26;99496.47;;;-12.00;93.78
62655;BME280;48717;55.556;37.816;2023-02-18T01:01:53;99494.72;;;-12.01;94.18
62655;BME280;48717;55.556;37.816;2023-02-18T01:04:21;99497.28;;;-11.91;94.26
62655;BME280;48717;55.556;37.816;2023-02-18T01:06:48;99481.72;;;-12.04;93.27
62655;BME280;48717;55.556;37.816;2023-02-18T01:09:15;99450.00;;;-12.20;93.76
62655;BME280;48717;55.556;37.816;2023-02-18T01:11:43;99448.72;;;-12.25;93.54
62655;BME280;48717;55.556;37.816;2023-02-18T01:14:10;99488.13;;;-11.99;93.30
62655;BME280;48717;55.556;37.816;2023-02-18T01:16:38;99435.50;;;-12.32;93.59
62655;BME280;48717;55.556;37.816;2023-02-18T01:19:07;99489.34;;;-12.04;93.71
62655;BME280;48717;55.556;37.816;2023-02-18T01:21:34;99482.41;;;-12.07;93.33
62655;BME280;48717;55.556;37.816;2023-02-18T01:24:01;99475.28;;;-12.11;93.34
62655;BME280;48717;55.556;37.816;2023-02-18T01:26:28;99471.88;;;-12.12;93.55
62655;BME280;48717;55.556;37.816;2023-02-18T01:28:55;99470.31;;;-12.10;94.06
62655;BME280;48717;55.556;37.816;2023-02-18T01:31:22;99405.91;;;-12.31;93.91
62655;BME280;48717;55.556;37.816;2023-02-18T01:33:50;99436.53;;;-12.09;94.09
62655;BME280;48717;55.556;37.816;2023-02-18T01:36:17;99394.84;;;-12.42;93.57
62655;BME280;48717;55.556;37.816;2023-02-18T01:38:44;99413.91;;;-12.26;93.67
62655;BME280;48717;55.556;37.816;2023-02-18T01:41:11;99422.94;;;-12.20;93.87
62655;BME280;48717;55.556;37.816;2023-02-18T01:43:38;99407.03;;;-12.27;93.79
62655;BME280;48717;55.556;37.816;2023-02-18T01:46:18;99418.72;;;-12.19;93.12
62655;BME280;48717;55.556;37.816;2023-02-18T01:48:59;99373.25;;;-12.47;92.96
62655;BME280;48717;55.556;37.816;2023-02-18T01:51:30;99390.91;;;-12.49;92.68
62655;BME280;48717;55.556;37.816;2023-02-18T01:56:43;99410.88;;;-12.43;93.94
62655;BME280;48717;55.556;37.816;2023-02-18T01:59:15;99408.59;;;-12.40;93.85
62655;BME280;48717;55.556;37.816;2023-02-18T02:01:44;99382.88;;;-12.53;93.72
62655;BME280;48717;55.556;37.816;2023-02-18T02:04:13;99376.53;;;-12.59;93.64
62655;BME280;48717;55.556;37.816;2023-02-18T02:06:40;99355.47;;;-12.68;93.76
62655;BME280;48717;55.556;37.816;2023-02-18T02:09:09;99382.53;;;-12.58;93.69
62655;BME280;48717;55.556;37.816;2023-02-18T02:38:04;99343.78;;;-12.55;94.22
62655;BME280;48717;55.556;37.816;2023-02-18T02:45:58;99276.09;;;-12.76;93.73
62655;BME280;48717;55.556;37.816;2023-02-18T02:51:32;99351.41;;;-12.35;93.07
62655;BME280;48717;55.556;37.816;2023-02-18T02:56:41;99342.88;;;-12.35;92.52
62655;BME280;48717;55.556;37.816;2023-02-18T02:59:23;99317.84;;;-12.41;92.88
62655;BME280;48717;55.556;37.816;2023-02-18T03:13:32;99308.41;;;-12.11;91.84
62655;BME280;48717;55.556;37.816;2023-02-18T03:18:43;99294.41;;;-12.06;91.67
62655;BME280;48717;55.556;37.816;2023-02-18T03:21:25;99252.00;;;-12.27;91.94
62655;BME280;48717;55.556;37.816;2023-02-18T03:24:19;99296.66;;;-11.98;91.65
62655;BME280;48717;55.556;37.816;2023-02-18T03:26:55;99239.44;;;-12.26;92.15
62655;BME280;48717;55.556;37.816;2023-02-18T03:29:25;99299.16;;;-11.88;92.89
62655;BME280;48717;55.556;37.816;2023-02-18T03:31:56;99289.69;;;-11.78;92.49
62655;BME280;48717;55.556;37.816;2023-02-18T03:34:28;99251.59;;;-11.89;92.75
62655;BME280;48717;55.556;37.816;2023-02-18T03:36:59;99282.25;;;-11.65;93.03
62655;BME280;48717;55.556;37.816;2023-02-18T03:39:29;99227.06;;;-11.88;92.46
62655;BME280;48717;55.556;37.816;2023-02-18T03:41:59;99241.88;;;-11.72;92.13
62655;BME280;48717;55.556;37.816;2023-02-18T03:44:26;99258.19;;;-11.58;92.59
62655;BME280;48717;55.556;37.816;2023-02-18T03:46:53;99207.03;;;-11.73;92.40
62655;BME280;48717;55.556;37.816;2023-02-18T03:49:20;99258.47;;;-11.43;91.54
62655;BME280;48717;55.556;37.816;2023-02-18T03:51:47;99224.78;;;-11.63;92.04
62655;BME280;48717;55.556;37.816;2023-02-18T03:54:15;99241.84;;;-11.50;91.78
62655;BME280;48717;55.556;37.816;2023-02-18T03:56:42;99249.09;;;-11.44;91.51
62655;BME280;48717;55.556;37.816;2023-02-18T03:59:10;99253.88;;;-11.37;92.18
62655;BME280;48717;55.556;37.816;2023-02-18T04:01:38;99217.84;;;-11.54;91.89
62655;BME280;48717;55.556;37.816;2023-02-18T04:04:05;99221.34;;;-11.41;91.61
62655;BME280;48717;55.556;37.816;2023-02-18T04:06:33;99236.78;;;-11.28;91.83
62655;BME280;48717;55.556;37.816;2023-02-18T04:09:01;99227.44;;;-11.27;92.08
62655;BME280;48717;55.556;37.816;2023-02-18T04:11:36;99175.50;;;-11.53;91.65
62655;BME280;48717;55.556;37.816;2023-02-18T04:14:04;99188.47;;;-11.38;91.83
62655;BME280;48717;55.556;37.816;2023-02-18T04:16:31;99217.66;;;-11.10;92.57
62655;BME280;48717;55.556;37.816;2023-02-18T04:18:59;99211.91;;;-11.08;92.65
62655;BME280;48717;55.556;37.816;2023-02-18T04:21:26;99222.78;;;-10.98;92.11
62655;BME280;48717;55.556;37.816;2023-02-18T04:23:53;99172.25;;;-11.16;91.78
62655;BME280;48717;55.556;37.816;2023-02-18T04:26:20;99214.97;;;-10.90;92.35
62655;BME280;48717;55.556;37.816;2023-02-18T04:28:47;99166.97;;;-11.07;91.91
62655;BME280;48717;55.556;37.816;2023-02-18T04:31:14;99186.50;;;-10.84;91.77
62655;BME280;48717;55.556;37.816;2023-02-18T04:33:42;99160.91;;;-10.97;91.87
62655;BME280;48717;55.556;37.816;2023-02-18T04:36:09;99159.78;;;-10.89;91.61
62655;BME280;48717;55.556;37.816;2023-02-18T04:38:37;99185.19;;;-10.79;92.37
62655;BME280;48717;55.556;37.816;2023-02-18T04:41:04;99162.81;;;-10.83;91.90
62655;BME280;48717;55.556;37.816;2023-02-18T04:43:31;99137.53;;;-10.92;92.14
62655;BME280;48717;55.556;37.816;2023-02-18T04:45:58;99184.09;;;-10.70;91.77
62655;BME280;48717;55.556;37.816;2023-02-18T04:48:25;99135.09;;;-10.90;92.08
62655;BME280;48717;55.556;37.816;2023-02-18T04:50:52;99140.09;;;-10.80;91.93
62655;BME280;48717;55.556;37.816;2023-02-18T04:53:21;99165.91;;;-10.63;91.37
62655;BME280;48717;55.556;37.816;2023-02-18T04:55:49;99122.72;;;-10.73;91.87
62655;BME280;48717;55.556;37.816;2023-02-18T04:58:18;99161.34;;;-10.67;91.03
62655;BME280;48717;55.556;37.816;2023-02-18T05:00:45;99169.69;;;-10.58;91.08
62655;BME280;48717;55.556;37.816;2023-02-18T05:03:12;99131.69;;;-10.79;91.25
62655;BME280;48717;55.556;37.816;2023-02-18T05:05:40;99152.19;;;-10.65;91.35
62655;BME280;48717;55.556;37.816;2023-02-18T05:08:07;99164.13;;;-10.52;91.50
62655;BME280;48717;55.556;37.816;2023-02-18T05:10:36;99158.38;;;-10.50;91.12
62655;BME280;48717;55.556;37.816;2023-02-18T05:13:03;99152.06;;;-10.55;91.66
62655;BME280;48717;55.556;37.816;2023-02-18T05:15:31;99160.34;;;-10.45;91.51
62655;BME280;48717;55.556;37.816;2023-02-18T05:17:58;99135.78;;;-10.57;91.31
62655;BME280;48717;55.556;37.816;2023-02-18T05:20:25;99153.69;;;-10.43;91.25
62655;BME280;48717;55.556;37.816;2023-02-18T05:22:52;99146.28;;;-10.40;90.97
62655;BME280;48717;55.556;37.816;2023-02-18T05:25:20;99095.66;;;-10.71;90.96
62655;BME280;48717;55.556;37.816;2023-02-18T05:27:47;99108.53;;;-10.58;91.27
62655;BME280;48717;55.556;37.816;2023-02-18T05:30:14;99115.38;;;-10.45;91.25
62655;BME280;48717;55.556;37.816;2023-02-18T05:32:41;99138.81;;;-10.37;91.45
62655;BME280;48717;55.556;37.816;2023-02-18T05:35:08;99115.72;;;-10.52;90.09
62655;BME280;48717;55.556;37.816;2023-02-18T05:37:35;99100.31;;;-10.54;90.42
62655;BME280;48717;55.556;37.816;2023-02-18T05:40:03;99129.16;;;-10.29;89.93
62655;BME280;48717;55.556;37.816;2023-02-18T05:42:31;99111.56;;;-10.38;89.78
62655;BME280;48717;55.556;37.816;2023-02-18T05:44:58;99092.44;;;-10.45;89.44
62655;BME280;48717;55.556;37.816;2023-02-18T05:47:25;99096.91;;;-10.29;89.63
62655;BME280;48717;55.556;37.816;2023-02-18T05:49:53;99070.00;;;-10.37;89.85
62655;BME280;48717;55.556;37.816;2023-02-18T05:52:21;99093.09;;;-10.10;89.77
62655;BME280;48717;55.556;37.816;2023-02-18T05:54:48;99097.50;;;-9.96;89.25
62655;BME280;48717;55.556;37.816;2023-02-18T05:57:16;99065.38;;;-10.05;88.55
62655;BME280;48717;55.556;37.816;2023-02-18T05:59:44;99090.03;;;-9.92;88.83
62655;BME280;48717;55.556;37.816;2023-02-18T06:02:11;99077.28;;;-9.92;88.36
62655;BME280;48717;55.556;37.816;2023-02-18T06:04:38;99078.91;;;-9.81;88.33
62655;BME280;48717;55.556;37.816;2023-02-18T06:07:06;99050.47;;;-9.99;87.57
62655;BME280;48717;55.556;37.816;2023-02-18T06:09:34;99071.72;;;-9.87;87.13
62655;BME280;48717;55.556;37.816;2023-02-18T06:12:01;99064.00;;;-9.75;86.91
62655;BME280;48717;55.556;37.816;2023-02-18T06:14:28;99074.22;;;-9.75;86.51
62655;BME280;48717;55.556;37.816;2023-02-18T06:16:55;99069.22;;;-9.73;86.47
62655;BME280;48717;55.556;37.816;2023-02-18T06:19:23;99047.94;;;-9.74;86.22
62655;BME280;48717;55.556;37.816;2023-02-18T06:21:50;99052.75;;;-9.65;86.67
62655;BME280;48717;55.556;37.816;2023-02-18T06:24:17;99029.19;;;-9.74;86.15
62655;BME280;48717;55.556;37.816;2023-02-18T06:26:44;99004.50;;;-9.87;85.13
62655;BME280;48717;55.556;37.816;2023-02-18T06:29:11;99048.94;;;-9.58;85.38
62655;BME280;48717;55.556;37.816;2023-02-18T06:31:38;99023.59;;;-9.68;85.31
62655;BME280;48717;55.556;37.816;2023-02-18T06:34:05;99027.72;;;-9.57;85.68
62655;BME280;48717;55.556;37.816;2023-02-18T06:36:33;98972.94;;;-9.76;85.31
62655;BME280;48717;55.556;37.816;2023-02-18T06:39:02;99010.88;;;-9.41;84.76
62655;BME280;48717;55.556;37.816;2023-02-18T06:41:29;99017.38;;;-9.20;84.10
62655;BME280;48717;55.556;37.816;2023-02-18T06:43:56;99027.41;;;-8.96;83.31
62655;BME280;48717;55.556;37.816;2023-02-18T06:46:24;99018.34;;;-8.91;83.37
62655;BME280;48717;55.556;37.816;2023-02-18T06:48:51;98962.28;;;-9.16;82.01
62655;BME280;48717;55.556;37.816;2023-02-18T06:51:19;99004.19;;;-8.85;82.06
62655;BME280;48717;55.556;37.816;2023-02-18T06:53:46;98954.31;;;-8.94;81.27
62655;BME280;48717;55.556;37.816;2023-02-18T06:56:15;98996.59;;;-8.70;81.26
62655;BME280;48717;55.556;37.816;2023-02-18T06:58:43;98966.34;;;-8.77;80.60
62655;BME280;48717;55.556;37.816;2023-02-18T07:01:10;98995.88;;;-8.54;80.88
62655;BME280;48717;55.556;37.816;2023-02-18T07:03:37;99005.06;;;-8.43;80.77
62655;BME280;48717;55.556;37.816;2023-02-18T07:06:05;98980.91;;;-8.48;79.69
62655;BME280;48717;55.556;37.816;2023-02-18T07:08:32;98976.13;;;-8.42;80.60
62655;BME280;48717;55.556;37.816;2023-02-18T07:11:02;98971.91;;;-8.41;79.55
62655;BME280;48717;55.556;37.816;2023-02-18T07:13:30;98934.00;;;-8.77;79.81
62655;BME280;48717;55.556;37.816;2023-02-18T07:15:57;98972.22;;;-8.50;80.41
62655;BME280;48717;55.556;37.816;2023-02-18T07:18:24;98956.78;;;-8.67;80.37
62655;BME280;48717;55.556;37.816;2023-02-18T07:20:51;98939.81;;;-8.80;81.01
62655;BME280;48717;55.556;37.816;2023-02-18T07:23:18;98956.38;;;-8.59;81.07
62655;BME280;48717;55.556;37.816;2023-02-18T07:25:45;98922.16;;;-8.61;81.70
62655;BME280;48717;55.556;37.816;2023-02-18T07:28:12;98929.03;;;-8.60;81.81
62655;BME280;48717;55.556;37.816;2023-02-18T07:30:39;98942.97;;;-8.55;81.36
62655;BME280;48717;55.556;37.816;2023-02-18T07:33:07;98927.09;;;-8.65;81.89
62655;BME280;48717;55.556;37.816;2023-02-18T07:35:34;98932.91;;;-8.52;81.94
62655;BME280;48717;55.556;37.816;2023-02-18T07:38:01;98932.41;;;-8.61;82.12
62655;BME280;48717;55.556;37.816;2023-02-18T07:40:29;98927.78;;;-8.67;83.54
62655;BME280;48717;55.556;37.816;2023-02-18T07:42:56;98909.25;;;-8.78;84.09
62655;BME280;48717;55.556;37.816;2023-02-18T07:45:23;98932.75;;;-8.55;83.96
62655;BME280;48717;55.556;37.816;2023-02-18T07:47:50;98918.22;;;-8.56;83.05
62655;BME280;48717;55.556;37.816;2023-02-18T07:50:17;98911.75;;;-8.65;84.04
62655;BME280;48717;55.556;37.816;2023-02-18T07:52:44;98907.53;;;-8.64;84.24
62655;BME280;48717;55.556;37.816;2023-02-18T07:55:12;98912.91;;;-8.59;84.44
62655;BME280;48717;55.556;37.816;2023-02-18T07:57:40;98907.09;;;-8.42;84.35
62655;BME280;48717;55.556;37.816;2023-02-18T08:00:23;98885.50;;;-8.47;84.10
62655;BME280;48717;55.556;37.816;2023-02-18T08:02:50;98905.09;;;-8.32;84.23
62655;BME280;48717;55.556;37.816;2023-02-18T08:05:18;98892.78;;;-8.24;84.56
62655;BME280;48717;55.556;37.816;2023-02-18T08:07:45;98810.91;;;-8.70;83.82
62655;BME280;48717;55.556;37.816;2023-02-18T08:10:12;98886.59;;;-8.13;84.60
62655;BME280;48717;55.556;37.816;2023-02-18T08:12:40;98861.72;;;-8.16;83.66
62655;BME280;48717;55.556;37.816;2023-02-18T08:15:07;98875.56;;;-7.97;83.98
62655;BME280;48717;55.556;37.816;2023-02-18T08:17:34;98837.03;;;-8.15;83.07
62655;BME280;48717;55.556;37.816;2023-02-18T08:20:02;98823.78;;;-8.08;82.73
62655;BME280;48717;55.556;37.816;2023-02-18T08:22:30;98814.44;;;-8.07;82.87
62655;BME280;48717;55.556;37.816;2023-02-18T08:24:57;98853.41;;;-7.81;82.82
62655;BME280;48717;55.556;37.816;2023-02-18T08:27:24;98843.00;;;-7.84;81.75
62655;BME280;48717;55.556;37.816;2023-02-18T08:29:52;98780.03;;;-8.13;82.76
62655;BME280;48717;55.556;37.816;2023-02-18T08:32:19;98853.19;;;-7.54;83.36
62655;BME280;48717;55.556;37.816;2023-02-18T08:34:46;98833.22;;;-7.45;82.34
62655;BME280;48717;55.556;37.816;2023-02-18T08:37:13;98825.53;;;-7.45;80.67
62655;BME280;48717;55.556;37.816;2023-02-18T08:39:40;98829.84;;;-7.44;80.72
62655;BME280;48717;55.556;37.816;2023-02-18T08:42:07;98792.41;;;-7.42;81.17
62655;BME280;48717;55.556;37.816;2023-02-18T08:44:34;98815.31;;;-7.28;80.42
62655;BME280;48717;55.556;37.816;2023-02-18T08:47:02;98809.81;;;-7.19;80.94
62655;BME280;48717;55.556;37.816;2023-02-18T08:49:51;98789.31;;;-7.19;80.18
62655;BME280;48717;55.556;37.816;2023-02-18T08:52:19;98792.44;;;-7.09;80.42
62655;BME280;48717;55.556;37.816;2023-02-18T08:54:46;98755.22;;;-7.18;79.50
62655;BME280;48717;55.556;37.816;2023-02-18T08:57:13;98788.50;;;-6.85;79.90
62655;BME280;48717;55.556;37.816;2023-02-18T08:59:40;98775.63;;;-7.03;78.48
62655;BME280;48717;55.556;37.816;2023-02-18T09:02:12;98727.50;;;-7.26;77.64
62655;BME280;48717;55.556;37.816;2023-02-18T09:04:39;98796.75;;;-6.74;77.58
62655;BME280;48717;55.556;37.816;2023-02-18T09:07:06;98805.25;;;-6.59;77.24
62655;BME280;48717;55.556;37.816;2023-02-18T09:09:33;98742.75;;;-6.77;76.68
62655;BME280;48717;55.556;37.816;2023-02-18T09:12:01;98735.31;;;-6.73;76.13
62655;BME280;48717;55.556;37.816;2023-02-18T09:14:28;98706.72;;;-6.80;75.24
62655;BME280;48717;55.556;37.816;2023-02-18T09:16:56;98767.78;;;-6.38;74.87
62655;BME280;48717;55.556;37.816;2023-02-18T09:19:24;98761.41;;;-6.10;74.35
62655;BME280;48717;55.556;37.816;2023-02-18T09:21:51;98749.75;;;-5.85;73.56
62655;BME280;48717;55.556;37.816;2023-02-18T09:24:19;98727.25;;;-5.71;71.64
62655;BME280;48717;55.556;37.816;2023-02-18T09:26:46;98745.78;;;-5.79;71.45
62655;BME280;48717;55.556;37.816;2023-02-18T09:29:13;98720.44;;;-5.89;72.12
62655;BME280;48717;55.556;37.816;2023-02-18T09:31:40;98742.66;;;-5.71;71.38
62655;BME280;48717;55.556;37.816;2023-02-18T09:34:08;98738.25;;;-5.74;71.65
62655;BME280;48717;55.556;37.816;2023-02-18T09:36:35;98722.16;;;-5.90;70.89
62655;BME280;48717;55.556;37.816;2023-02-18T09:39:02;98700.47;;;-6.14;71.47
62655;BME280;48717;55.556;37.816;2023-02-18T09:41:42;98710.56;;;-5.99;71.65
62655;BME280;48717;55.556;37.816;2023-02-18T09:44:22;98681.84;;;-6.10;72.08
62655;BME280;48717;55.556;37.816;2023-02-18T09:49:59;98665.50;;;-5.55;69.44
62655;BME280;48717;55.556;37.816;2023-02-18T09:52:33;98685.91;;;-5.18;69.26
62655;BME280;48717;55.556;37.816;2023-02-18T09:55:29;98689.28;;;-5.00;68.00
62655;BME280;48717;55.556;37.816;2023-02-18T09:58:10;98646.19;;;-5.46;68.62
62655;BME280;48717;55.556;37.816;2023-02-18T10:00:54;98681.34;;;-5.26;67.33
62655;BME280;48717;55.556;37.816;2023-02-18T10:03:24;98676.06;;;-5.29;68.13
62655;BME280;48717;55.556;37.816;2023-02-18T10:06:03;98645.50;;;-5.42;68.37
62655;BME280;48717;55.556;37.816;2023-02-18T10:08:37;98632.63;;;-5.22;67.29
62655;BME280;48717;55.556;37.816;2023-02-18T10:11:21;98623.53;;;-4.94;65.37
62655;BME280;48717;55.556;37.816;2023-02-18T10:13:49;98640.78;;;-4.70;66.53
62655;BME280;48717;55.556;37.816;2023-02-18T10:16:19;98633.25;;;-4.66;64.79
62655;BME280;48717;55.556;37.816;2023-02-18T10:18:50;98607.13;;;-4.54;64.77
62655;BME280;48717;55.556;37.816;2023-02-18T10:21:23;98601.00;;;-4.79;64.52
62655;BME280;48717;55.556;37.816;2023-02-18T10:24:04;98609.53;;;-4.80;64.70
62655;BME280;48717;55.556;37.816;2023-02-18T10:26:34;98622.31;;;-4.60;64.31
62655;BME280;48717;55.556;37.816;2023-02-18T10:29:04;98608.44;;;-4.20;64.17
62655;BME280;48717;55.556;37.816;2023-02-18T10:31:48;98611.06;;;-4.18;63.19
62655;BME280;48717;55.556;37.816;2023-02-18T10:34:33;98569.66;;;-4.24;62.50
62655;BME280;48717;55.556;37.816;2023-02-18T10:46:20;98576.53;;;-3.27;59.88
62655;BME280;48717;55.556;37.816;2023-02-18T10:51:31;98575.25;;;-3.64;60.74
62655;BME280;48717;55.556;37.816;2023-02-18T10:54:00;98567.50;;;-4.13;63.16
62655;BME280;48717;55.556;37.816;2023-02-18T10:59:25;98583.50;;;-3.98;63.58
62655;BME280;48717;55.556;37.816;2023-02-18T11:01:55;98563.91;;;-3.94;62.53
62655;BME280;48717;55.556;37.816;2023-02-18T11:04:32;98571.31;;;-4.02;62.48
62655;BME280;48717;55.556;37.816;2023-02-18T11:07:13;98566.75;;;-3.37;61.41
62655;BME280;48717;55.556;37.816;2023-02-18T11:09:46;98559.78;;;-2.88;59.08
62655;BME280;48717;55.556;37.816;2023-02-18T11:12:29;98550.78;;;-2.73;59.14
62655;BME280;48717;55.556;37.816;2023-02-18T11:17:41;98534.41;;;-2.16;57.10
62655;BME280;48717;55.556;37.816;2023-02-18T11:22:58;98549.00;;;-1.56;56.03
62655;BME280;48717;55.556;37.816;2023-02-18T11:25:29;98528.31;;;-1.56;55.27
62655;BME280;48717;55.556;37.816;2023-02-18T11:28:35;98505.88;;;-1.90;54.71
62655;BME280;48717;55.556;37.816;2023-02-18T11:30:56;98543.28;;;-2.07;55.60
62655;BME280;48717;55.556;37.816;2023-02-18T11:33:40;98524.75;;;-2.23;55.69
62655;BME280;48717;55.556;37.816;2023-02-18T11:36:18;98476.97;;;-2.96;56.23
62655;BME280;48717;55.556;37.816;2023-02-18T11:38:50;98529.88;;;-2.54;57.23
62655;BME280;48717;55.556;37.816;2023-02-18T11:44:38;98529.25;;;-2.74;56.37
62655;BME280;48717;55.556;37.816;2023-02-18T11:49:41;98467.81;;;-3.13;57.80
62655;BME280;48717;55.556;37.816;2023-02-18T11:52:40;98501.88;;;-2.69;57.00
62655;BME280;48717;55.556;37.816;2023-02-18T11:57:37;98490.97;;;-3.43;59.51
62655;BME280;48717;55.556;37.816;2023-02-18T12:03:48;98474.28;;;-4.27;62.19
62655;BME280;48717;55.556;37.816;2023-02-18T12:06:32;98488.03;;;-4.51;63.57
62655;BME280;48717;55.556;37.816;2023-02-18T12:09:10;98446.34;;;-4.88;64.24
62655;BME280;48717;55.556;37.816;2023-02-18T12:11:42;98453.81;;;-4.72;64.46
62655;BME280;48717;55.556;37.816;2023-02-18T12:14:17;98461.06;;;-4.61;65.11
62655;BME280;48717;55.556;37.816;2023-02-18T12:34:42;98448.19;;;-2.52;57.43
62655;BME280;48717;55.556;37.816;2023-02-18T12:40:08;98447.75;;;-2.06;56.14
62655;BME280;48717;55.556;37.816;2023-02-18T12:43:12;98435.97;;;-2.28;55.71
62655;BME280;48717;55.556;37.816;2023-02-18T12:51:39;98424.53;;;-3.24;59.40
62655;BME280;48717;55.556;37.816;2023-02-18T13:05:36;98427.38;;;-4.44;63.21
62655;BME280;48717;55.556;37.816;2023-02-18T13:13:25;98399.09;;;-4.90;65.57
62655;BME280;48717;55.556;37.816;2023-02-18T13:15:58;98391.41;;;-5.13;65.95
62655;BME280;48717;55.556;37.816;2023-02-18T13:18:39;98374.22;;;-5.37;67.59
62655;BME280;48717;55.556;37.816;2023-02-18T13:21:15;98411.81;;;-5.39;68.11
62655;BME280;48717;55.556;37.816;2023-02-18T13:23:49;98399.75;;;-5.63;69.24
62655;BME280;48717;55.556;37.816;2023-02-18T13:26:18;98389.28;;;-5.68;70.02
62655;BME280;48717;55.556;37.816;2023-02-18T13:31:58;98374.38;;;-5.77;69.67
62655;BME280;48717;55.556;37.816;2023-02-18T13:34:41;98392.44;;;-5.95;70.67
62655;BME280;48717;55.556;37.816;2023-02-18T13:40:20;98378.50;;;-6.02;71.71
62655;BME280;48717;55.556;37.816;2023-02-18T13:42:52;98365.50;;;-6.27;71.59
62655;BME280;48717;55.556;37.816;2023-02-18T13:45:31;98369.38;;;-6.16;72.67
62655;BME280;48717;55.556;37.816;2023-02-18T13:47:59;98361.97;;;-6.30;73.00
62655;BME280;48717;55.556;37.816;2023-02-18T14:01:12;98368.34;;;-6.41;74.02
62655;BME280;48717;55.556;37.816;2023-02-18T14:06:21;98354.16;;;-6.52;74.24
62655;BME280;48717;55.556;37.816;2023-02-18T14:09:35;98359.72;;;-6.63;74.22
62655;BME280;48717;55.556;37.816;2023-02-18T14:12:34;98360.91;;;-6.55;74.68
62655;BME280;48717;55.556;37.816;2023-02-18T14:26:28;98304.25;;;-7.00;75.18
62655;BME280;48717;55.556;37.816;2023-02-18T14:29:01;98339.25;;;-6.81;75.69
62655;BME280;48717;55.556;37.816;2023-02-18T14:31:50;98326.66;;;-6.96;75.74
62655;BME280;48717;55.556;37.816;2023-02-18T14:37:49;98348.09;;;-6.94;75.56
62655;BME280;48717;55.556;37.816;2023-02-18T14:43:43;98341.75;;;-7.02;76.39
62655;BME280;48717;55.556;37.816;2023-02-18T14:51:51;98291.03;;;-7.29;77.22
62655;BME280;48717;55.556;37.816;2023-02-18T14:54:20;98318.13;;;-7.15;76.69
62655;BME280;48717;55.556;37.816;2023-02-18T14:56:56;98317.31;;;-7.14;77.64
62655;BME280;48717;55.556;37.816;2023-02-18T14:59:28;98315.44;;;-7.18;78.10
62655;BME280;48717;55.556;37.816;2023-02-18T15:01:56;98316.59;;;-7.11;78.26
62655;BME280;48717;55.556;37.816;2023-02-18T15:04:25;98306.94;;;-7.17;77.74
62655;BME280;48717;55.556;37.816;2023-02-18T15:07:04;98312.50;;;-7.08;78.24
62655;BME280;48717;55.556;37.816;2023-02-18T15:09:31;98312.19;;;-7.14;78.25
62655;BME280;48717;55.556;37.816;2023-02-18T15:12:07;98287.31;;;-7.16;78.50
62655;BME280;48717;55.556;37.816;2023-02-18T15:14:38;98297.34;;;-7.21;78.46
62655;BME280;48717;55.556;37.816;2023-02-18T15:17:15;98251.50;;;-7.35;78.84
62655;BME280;48717;55.556;37.816;2023-02-18T15:19:48;98260.56;;;-7.23;77.48
62655;BME280;48717;55.556;37.816;2023-02-18T15:22:21;98276.81;;;-7.23;77.66
62655;BME280;48717;55.556;37.816;2023-02-18T15:24:54;98260.16;;;-7.32;78.49
62655;BME280;48717;55.556;37.816;2023-02-18T15:27:24;98278.72;;;-7.18;77.59
62655;BME280;48717;55.556;37.816;2023-02-18T15:29:57;98263.34;;;-7.18;79.19
62655;BME280;48717;55.556;37.816;2023-02-18T15:32:26;98207.16;;;-7.53;78.81
62655;BME280;48717;55.556;37.816;2023-02-18T15:35:00;98265.94;;;-7.17;78.02
62655;BME280;48717;55.556;37.816;2023-02-18T15:37:30;98255.19;;;-7.29;78.58
62655;BME280;48717;55.556;37.816;2023-02-18T15:39:57;98223.00;;;-7.42;78.14
62655;BME280;48717;55.556;37.816;2023-02-18T15:42:30;98240.06;;;-7.23;78.14
62655;BME280;48717;55.556;37.816;2023-02-18T15:45:21;98227.66;;;-7.34;78.63
62655;BME280;48717;55.556;37.816;2023-02-18T15:47:54;98213.66;;;-7.42;79.30
62655;BME280;48717;55.556;37.816;2023-02-18T15:52:54;98252.06;;;-7.22;79.34
62655;BME280;48717;55.556;37.816;2023-02-18T15:55:30;98210.41;;;-7.38;79.17
62655;BME280;48717;55.556;37.816;2023-02-18T15:58:05;98236.69;;;-7.22;79.51
62655;BME280;48717;55.556;37.816;2023-02-18T16:00:49;98238.19;;;-7.27;79.77